Time;durP1;ratioP1;P1;durP2;ratioP2;P2;SDS_P1;SDS_P2;PMS_P1;PMS_P2;Temp;Humidity;BMP_temperature;BMP_pressure;BME280_temperature;BME280_humidity;BME280_pressure;Samples;Min_cycle;Max_cycle;Signal;HPM_P1;HPM_P2
2022/03/15 00:00:57;;;;;;;;;;;11.60;99.90;;;;;;4937490;28;19926;-87
2022/03/15 00:03:22;;;;;;;;;;;11.60;99.90;;;;;;4937756;28;20287;-88
2022/03/15 00:05:48;;;;;;;;;;;11.50;99.90;;;;;;4937918;28;19914;-87
2022/03/15 00:08:14;;;;;;;;;;;11.60;99.90;;;;;;4937387;28;19911;-87
2022/03/15 00:10:40;;;;;;;;;;;11.50;99.90;;;;;;4954959;28;19911;-88
2022/03/15 00:13:07;;;;;;;;;;;11.50;99.90;;;;;;4937144;28;20299;-88
2022/03/15 00:15:34;;;;;;;;;;;11.50;99.90;;;;;;4942875;28;20042;-87
2022/03/15 00:17:59;;;;;;;;;;;11.50;99.90;;;;;;4965333;28;19933;-87
2022/03/15 00:20:25;;;;;;;;;;;11.50;99.90;;;;;;4939361;28;20403;-87
2022/03/15 00:22:51;;;;;;;;;;;11.50;99.90;;;;;;4955701;28;19918;-87
2022/03/15 00:25:17;;;;;;;;;;;11.50;99.90;;;;;;4963062;28;19918;-87
2022/03/15 00:27:44;;;;;;;;;;;11.50;99.90;;;;;;4954367;28;19910;-88
2022/03/15 00:30:10;;;;;;;;;;;11.50;99.90;;;;;;4948790;28;20363;-87
2022/03/15 00:32:35;;;;;;;;;;;11.50;99.90;;;;;;4955898;28;19920;-87
2022/03/15 00:35:01;;;;;;;;;;;11.50;99.90;;;;;;4955767;28;19945;-87
2022/03/15 00:37:27;;;;;;;;;;;11.50;99.90;;;;;;4973245;28;19910;-87
2022/03/15 00:39:52;;;;;;;;;;;11.60;99.90;;;;;;4968527;28;20508;-87
2022/03/15 00:42:18;;;;;;;;;;;11.60;99.90;;;;;;4955417;28;20407;-88
2022/03/15 00:44:44;;;;;;;;;;;11.50;99.90;;;;;;4936620;29;19995;-87
2022/03/15 00:47:10;;;;;;;;;;;11.60;99.90;;;;;;4939923;29;19966;-88
2022/03/15 00:49:36;;;;;;;;;;;11.50;99.90;;;;;;4955167;28;20011;-88
2022/03/15 00:52:01;;;;;;;;;;;11.50;99.90;;;;;;4953351;28;20007;-88
2022/03/15 00:54:27;;;;;;;;;;;11.50;99.90;;;;;;4972251;28;20005;-88
2022/03/15 00:56:53;;;;;;;;;;;11.50;99.90;;;;;;4972345;28;19914;-88
2022/03/15 00:59:19;;;;;;;;;;;11.50;99.90;;;;;;4972262;28;19910;-87
2022/03/15 01:01:45;;;;;;;;;;;11.50;99.90;;;;;;4955167;28;19918;-87
2022/03/15 01:04:11;;;;;;;;;;;11.40;99.90;;;;;;4976795;28;19917;-88
2022/03/15 01:06:37;;;;;;;;;;;11.50;99.90;;;;;;4953852;28;19914;-88
2022/03/15 01:09:03;;;;;;;;;;;11.50;99.90;;;;;;4938696;28;20214;-88
2022/03/15 01:11:28;;;;;;;;;;;11.60;99.90;;;;;;4964699;28;19982;-87
2022/03/15 01:13:54;;;;;;;;;;;11.60;99.90;;;;;;4972829;28;20127;-87
2022/03/15 01:16:19;;;;;;;;;;;11.60;99.90;;;;;;4948152;28;19910;-88
2022/03/15 01:18:45;;;;;;;;;;;11.50;99.90;;;;;;4974140;28;19960;-87
2022/03/15 01:21:13;;;;;;;;;;;11.50;99.90;;;;;;4972476;28;20398;-87
2022/03/15 01:23:38;;;;;;;;;;;11.50;99.90;;;;;;4953567;28;19918;-88
2022/03/15 01:26:04;;;;;;;;;;;11.50;99.90;;;;;;4953570;28;19910;-87
2022/03/15 01:28:29;;;;;;;;;;;11.50;99.90;;;;;;4942347;29;20001;-88
2022/03/15 01:30:55;;;;;;;;;;;11.50;99.90;;;;;;4953984;28;20395;-89
2022/03/15 01:33:21;;;;;;;;;;;11.50;99.90;;;;;;4957467;28;19914;-88
2022/03/15 01:35:46;;;;;;;;;;;11.50;99.90;;;;;;4958120;28;19911;-88
2022/03/15 01:38:12;;;;;;;;;;;11.50;99.90;;;;;;4976857;28;20186;-88
2022/03/15 01:40:38;;;;;;;;;;;11.50;99.90;;;;;;4962060;28;19911;-88
2022/03/15 01:43:03;;;;;;;;;;;11.50;99.90;;;;;;4954363;28;19911;-88
2022/03/15 01:45:36;;;;;;;;;;;11.50;99.90;;;;;;4952819;28;19925;-88
2022/03/15 01:48:02;;;;;;;;;;;11.50;99.90;;;;;;4959555;28;19977;-88
2022/03/15 01:50:28;;;;;;;;;;;11.40;99.90;;;;;;4937082;29;19918;-88
2022/03/15 01:52:54;;;;;;;;;;;11.40;99.90;;;;;;4954563;28;19911;-88
2022/03/15 01:55:19;;;;;;;;;;;11.40;99.90;;;;;;4956859;28;20233;-88
2022/03/15 01:57:45;;;;;;;;;;;11.40;99.90;;;;;;4954949;28;20005;-88
2022/03/15 02:00:11;;;;;;;;;;;11.40;99.90;;;;;;4953155;28;19930;-88
2022/03/15 02:02:38;;;;;;;;;;;11.50;99.90;;;;;;4964873;28;19914;-88
2022/03/15 02:05:04;;;;;;;;;;;11.40;99.90;;;;;;4966117;28;19919;-88
2022/03/15 02:07:30;;;;;;;;;;;11.40;99.90;;;;;;4953094;28;19910;-88
2022/03/15 02:09:55;;;;;;;;;;;11.40;99.90;;;;;;4952874;28;19933;-88
2022/03/15 02:12:21;;;;;;;;;;;11.40;99.90;;;;;;4955174;28;20253;-88
2022/03/15 02:14:46;;;;;;;;;;;11.30;99.90;;;;;;4951582;28;19910;-88
2022/03/15 02:17:12;;;;;;;;;;;11.40;99.90;;;;;;4953334;28;19911;-88
2022/03/15 02:19:38;;;;;;;;;;;11.40;99.90;;;;;;4945182;28;19911;-88
2022/03/15 02:22:03;;;;;;;;;;;11.40;99.90;;;;;;4957364;28;19973;-88
2022/03/15 02:24:29;;;;;;;;;;;11.40;99.90;;;;;;4947856;29;20426;-88
2022/03/15 02:26:55;;;;;;;;;;;11.40;99.90;;;;;;4956860;28;19911;-88
2022/03/15 02:29:21;;;;;;;;;;;11.40;99.90;;;;;;4959196;28;19906;-88
2022/03/15 02:31:47;;;;;;;;;;;11.40;99.90;;;;;;4975229;28;19910;-87
2022/03/15 02:34:13;;;;;;;;;;;11.40;99.90;;;;;;4975600;28;19910;-88
2022/03/15 02:36:38;;;;;;;;;;;11.40;99.90;;;;;;4976673;28;20186;-88
2022/03/15 02:39:04;;;;;;;;;;;11.40;99.90;;;;;;4977924;28;19910;-88
2022/03/15 02:41:29;;;;;;;;;;;11.40;99.90;;;;;;4978398;28;19957;-88
2022/03/15 02:43:56;;;;;;;;;;;11.40;99.90;;;;;;4976715;28;20264;-88
2022/03/15 02:46:27;;;;;;;;;;;11.40;99.90;;;;;;4957772;28;19911;-87
2022/03/15 02:48:53;;;;;;;;;;;11.30;99.90;;;;;;4958612;28;19910;-88
2022/03/15 02:51:19;;;;;;;;;;;11.40;99.90;;;;;;4939186;29;19917;-88
2022/03/15 02:53:46;;;;;;;;;;;11.40;99.90;;;;;;4956145;28;19969;-88
2022/03/15 02:56:11;;;;;;;;;;;11.50;99.90;;;;;;4939076;29;20355;-88
2022/03/15 02:58:38;;;;;;;;;;;11.50;99.90;;;;;;4974064;28;19921;-87
2022/03/15 03:01:03;;;;;;;;;;;11.50;99.90;;;;;;4974777;28;19925;-88
2022/03/15 03:03:29;;;;;;;;;;;11.50;99.90;;;;;;4974920;28;19918;-88
2022/03/15 03:05:55;;;;;;;;;;;11.60;99.90;;;;;;4948386;28;19914;-88
2022/03/15 03:08:27;;;;;;;;;;;11.50;99.90;;;;;;4939402;28;19950;-88
2022/03/15 03:10:57;;;;;;;;;;;11.50;99.90;;;;;;4941471;28;19977;-88
2022/03/15 03:13:25;;;;;;;;;;;11.60;99.90;;;;;;4974327;28;19910;-88
2022/03/15 03:15:52;;;;;;;;;;;11.60;99.90;;;;;;4961468;28;19918;-88
2022/03/15 03:18:18;;;;;;;;;;;11.60;99.90;;;;;;4975293;28;19958;-88
2022/03/15 03:20:44;;;;;;;;;;;11.50;99.90;;;;;;4976325;28;19918;-88
2022/03/15 03:23:09;;;;;;;;;;;11.60;99.90;;;;;;4972096;28;19910;-88
2022/03/15 03:25:36;;;;;;;;;;;11.50;99.90;;;;;;4955732;28;20447;-88
2022/03/15 03:28:03;;;;;;;;;;;11.60;99.90;;;;;;4956991;28;19911;-88
2022/03/15 03:30:29;;;;;;;;;;;11.60;99.90;;;;;;4971254;28;19914;-88
2022/03/15 03:32:55;;;;;;;;;;;11.60;99.90;;;;;;4966493;28;20424;-88
2022/03/15 03:35:21;;;;;;;;;;;11.60;99.90;;;;;;4964925;28;20395;-88
2022/03/15 03:37:47;;;;;;;;;;;11.60;99.90;;;;;;4985338;28;19925;-88
2022/03/15 03:40:12;;;;;;;;;;;11.50;99.90;;;;;;4951811;28;19982;-88
2022/03/15 03:42:38;;;;;;;;;;;11.50;99.90;;;;;;4967344;28;19910;-88
2022/03/15 03:45:04;;;;;;;;;;;11.50;99.90;;;;;;4975848;28;19953;-88
2022/03/15 03:47:30;;;;;;;;;;;11.50;99.90;;;;;;4968073;28;20414;-89
2022/03/15 03:49:55;;;;;;;;;;;11.50;99.90;;;;;;4971851;28;19911;-89
2022/03/15 03:52:21;;;;;;;;;;;11.50;99.90;;;;;;4971693;28;19921;-88
2022/03/15 03:54:47;;;;;;;;;;;11.50;99.90;;;;;;4971056;28;19993;-88
2022/03/15 03:57:12;;;;;;;;;;;11.50;99.90;;;;;;4971121;28;19899;-88
2022/03/15 03:59:38;;;;;;;;;;;11.50;99.90;;;;;;4968053;28;19942;-89
2022/03/15 04:02:03;;;;;;;;;;;11.50;99.90;;;;;;4987562;28;19910;-88
2022/03/15 04:04:29;;;;;;;;;;;11.40;99.90;;;;;;4983341;28;19918;-88
2022/03/15 04:06:55;;;;;;;;;;;11.40;99.90;;;;;;4969212;28;20030;-88
2022/03/15 04:09:22;;;;;;;;;;;11.40;99.90;;;;;;4952178;29;19911;-89
2022/03/15 04:11:49;;;;;;;;;;;11.40;99.90;;;;;;4968656;28;19902;-89
2022/03/15 04:14:15;;;;;;;;;;;11.40;99.90;;;;;;4951855;28;19911;-89
2022/03/15 04:16:41;;;;;;;;;;;11.40;99.90;;;;;;4968635;28;19921;-89
2022/03/15 04:19:07;;;;;;;;;;;11.40;99.90;;;;;;4969126;28;19915;-88
2022/03/15 04:21:33;;;;;;;;;;;11.40;99.90;;;;;;4949250;28;19918;-89
2022/03/15 04:23:58;;;;;;;;;;;11.40;99.90;;;;;;4973956;28;19921;-89
2022/03/15 04:26:24;;;;;;;;;;;11.40;99.90;;;;;;4975874;28;19911;-88
2022/03/15 04:28:51;;;;;;;;;;;11.40;99.90;;;;;;4977652;28;19906;-88
2022/03/15 04:31:16;;;;;;;;;;;11.40;99.90;;;;;;4975305;28;20005;-88
2022/03/15 04:33:42;;;;;;;;;;;11.40;99.90;;;;;;4973864;28;19942;-89
2022/03/15 04:36:08;;;;;;;;;;;11.40;99.90;;;;;;4956408;28;20317;-88
2022/03/15 04:38:34;;;;;;;;;;;11.30;99.90;;;;;;4951209;28;19911;-88
2022/03/15 04:41:00;;;;;;;;;;;11.40;99.90;;;;;;4955139;28;20005;-88
2022/03/15 04:43:25;;;;;;;;;;;11.40;99.90;;;;;;4973166;28;20053;-89
2022/03/15 04:45:51;;;;;;;;;;;11.30;99.90;;;;;;4972890;28;19960;-88
2022/03/15 04:48:18;;;;;;;;;;;11.30;99.90;;;;;;4973575;28;19918;-88
2022/03/15 04:50:44;;;;;;;;;;;11.40;99.90;;;;;;4968249;28;19911;-88
2022/03/15 04:53:09;;;;;;;;;;;11.30;99.90;;;;;;4944513;28;19910;-88
2022/03/15 04:55:35;;;;;;;;;;;11.30;99.90;;;;;;4971492;28;19922;-89
2022/03/15 04:58:00;;;;;;;;;;;11.30;99.90;;;;;;4967166;28;20318;-88
2022/03/15 05:00:26;;;;;;;;;;;11.30;99.90;;;;;;4974782;28;20004;-89
2022/03/15 05:02:52;;;;;;;;;;;11.40;99.90;;;;;;4945243;29;19911;-88
2022/03/15 05:05:17;;;;;;;;;;;11.40;99.90;;;;;;4955757;28;20261;-88
2022/03/15 05:07:46;;;;;;;;;;;11.30;99.90;;;;;;4941915;29;19911;-88
2022/03/15 05:12:56;;;;;;;;;;;11.30;99.90;;;;;;4974613;28;19965;-88
2022/03/15 05:15:23;;;;;;;;;;;11.30;99.90;;;;;;4949423;29;19910;-88
2022/03/15 05:17:48;;;;;;;;;;;11.40;99.90;;;;;;4948241;28;19910;-88
2022/03/15 05:20:14;;;;;;;;;;;11.40;99.90;;;;;;4955042;28;19917;-89
2022/03/15 05:22:40;;;;;;;;;;;11.40;99.90;;;;;;4954851;28;19910;-88
2022/03/15 05:25:06;;;;;;;;;;;11.40;99.90;;;;;;4972205;28;20064;-89
2022/03/15 05:27:33;;;;;;;;;;;11.40;99.90;;;;;;4972772;28;19996;-89
2022/03/15 05:30:02;;;;;;;;;;;11.40;99.90;;;;;;4950852;29;19911;-89
2022/03/15 05:32:28;;;;;;;;;;;11.50;99.90;;;;;;4974245;28;19910;-88
2022/03/15 05:34:54;;;;;;;;;;;11.40;99.90;;;;;;4974627;28;19912;-88
2022/03/15 05:37:19;;;;;;;;;;;11.40;99.90;;;;;;4971800;28;20314;-89
2022/03/15 05:39:45;;;;;;;;;;;11.40;99.90;;;;;;4970542;28;19952;-89
2022/03/15 05:42:13;;;;;;;;;;;11.40;99.90;;;;;;4951942;28;19910;-88
2022/03/15 05:44:39;;;;;;;;;;;11.40;99.90;;;;;;4951328;28;19914;-89
2022/03/15 05:47:05;;;;;;;;;;;11.40;99.90;;;;;;4935604;28;20509;-89
2022/03/15 05:49:30;;;;;;;;;;;11.40;99.90;;;;;;4935259;28;20210;-88
2022/03/15 05:51:56;;;;;;;;;;;11.40;99.90;;;;;;4938166;28;20346;-89
2022/03/15 05:54:21;;;;;;;;;;;11.40;99.90;;;;;;4952722;28;20009;-88
2022/03/15 05:56:47;;;;;;;;;;;11.40;99.90;;;;;;4952734;28;20372;-89
2022/03/15 05:59:13;;;;;;;;;;;11.40;99.90;;;;;;4951006;28;20387;-88
2022/03/15 06:01:39;;;;;;;;;;;11.40;99.90;;;;;;4952670;28;19989;-88
2022/03/15 06:04:05;;;;;;;;;;;11.40;99.90;;;;;;4953039;28;19914;-88
2022/03/15 06:06:31;;;;;;;;;;;11.40;99.90;;;;;;4952627;28;19910;-88
2022/03/15 06:08:56;;;;;;;;;;;11.40;99.90;;;;;;4941572;28;19964;-88
2022/03/15 06:11:22;;;;;;;;;;;11.50;99.90;;;;;;4964203;28;19929;-88
2022/03/15 06:13:47;;;;;;;;;;;11.50;99.90;;;;;;4976091;28;19973;-89
2022/03/15 06:16:13;;;;;;;;;;;11.50;99.90;;;;;;4964312;28;19906;-88
2022/03/15 06:18:39;;;;;;;;;;;11.50;99.90;;;;;;4982232;28;20098;-88
2022/03/15 06:21:05;;;;;;;;;;;11.40;99.90;;;;;;4959701;29;19907;-88
2022/03/15 06:23:30;;;;;;;;;;;11.40;99.90;;;;;;4962746;28;19981;-88
2022/03/15 06:25:56;;;;;;;;;;;11.40;99.90;;;;;;4963276;28;19946;-89
2022/03/15 06:28:21;;;;;;;;;;;11.40;99.90;;;;;;4973690;28;20180;-88
2022/03/15 06:30:47;;;;;;;;;;;11.40;99.90;;;;;;4963578;28;19946;-89
2022/03/15 06:33:13;;;;;;;;;;;11.40;99.90;;;;;;4982294;28;19906;-89
2022/03/15 06:35:38;;;;;;;;;;;11.40;99.90;;;;;;4981775;28;20217;-88
2022/03/15 06:38:04;;;;;;;;;;;11.50;99.90;;;;;;4965439;28;19906;-88
2022/03/15 06:40:32;;;;;;;;;;;11.50;99.90;;;;;;4964704;28;19914;-88
2022/03/15 06:42:58;;;;;;;;;;;11.40;99.90;;;;;;4945748;28;19946;-88
2022/03/15 06:45:23;;;;;;;;;;;11.50;99.90;;;;;;4945966;28;19915;-88
2022/03/15 06:47:58;;;;;;;;;;;11.40;99.90;;;;;;4947266;28;20217;-95
2022/03/15 06:50:27;;;;;;;;;;;11.40;99.90;;;;;;4976363;28;19907;-96
2022/03/15 06:59:22;;;;;;;;;;;11.40;99.90;;;;;;4850483;29;20042;-95
2022/03/15 07:13:48;;;;;;;;;;;11.50;99.90;;;;;;5115698;23;19976;-92
2022/03/15 07:16:15;;;;;;;;;;;11.60;99.90;;;;;;4959318;28;19914;-93
2022/03/15 07:18:41;;;;;;;;;;;11.60;99.90;;;;;;4959490;28;20386;-93
2022/03/15 07:21:07;;;;;;;;;;;11.70;99.90;;;;;;4975231;28;19969;-94
2022/03/15 07:23:32;;;;;;;;;;;11.70;99.90;;;;;;4976130;28;19949;-93
2022/03/15 07:25:58;;;;;;;;;;;11.70;99.90;;;;;;4958895;28;19957;-94
2022/03/15 07:28:23;;;;;;;;;;;11.70;99.90;;;;;;4975067;28;20154;-93
2022/03/15 07:30:49;;;;;;;;;;;11.70;99.90;;;;;;4974352;28;20417;-93
2022/03/15 07:33:15;;;;;;;;;;;11.80;99.90;;;;;;4975159;28;19956;-93
2022/03/15 07:35:40;;;;;;;;;;;11.80;99.90;;;;;;4975216;28;20058;-94
2022/03/15 07:38:06;;;;;;;;;;;11.80;99.90;;;;;;4958824;28;19910;-94
2022/03/15 07:40:31;;;;;;;;;;;11.90;99.90;;;;;;4959002;28;20000;-92
2022/03/15 07:42:58;;;;;;;;;;;11.90;99.90;;;;;;4959222;28;19936;-94
2022/03/15 07:45:24;;;;;;;;;;;12.00;99.90;;;;;;4958949;28;19918;-94
2022/03/15 07:47:50;;;;;;;;;;;12.10;99.90;;;;;;4960735;28;19910;-94
2022/03/15 07:50:16;;;;;;;;;;;12.10;99.90;;;;;;4959719;28;19910;-94
2022/03/15 07:52:42;;;;;;;;;;;12.20;99.90;;;;;;4976295;28;19911;-95
2022/03/15 07:55:08;;;;;;;;;;;12.30;99.90;;;;;;4959633;28;20342;-94
2022/03/15 07:57:34;;;;;;;;;;;12.40;99.90;;;;;;4976129;28;19941;-94
2022/03/15 07:59:59;;;;;;;;;;;12.50;99.90;;;;;;4975707;28;19917;-94
2022/03/15 08:02:25;;;;;;;;;;;12.50;99.90;;;;;;4961711;28;20367;-94
2022/03/15 08:04:53;;;;;;;;;;;12.50;99.90;;;;;;4963051;28;19925;-94
2022/03/15 08:07:21;;;;;;;;;;;12.50;99.90;;;;;;4970002;28;20358;-94
2022/03/15 08:09:46;;;;;;;;;;;12.60;99.90;;;;;;4970154;28;20363;-94
2022/03/15 08:12:12;;;;;;;;;;;12.70;99.90;;;;;;4958614;28;19977;-94
2022/03/15 08:14:38;;;;;;;;;;;12.80;99.90;;;;;;4953533;29;20054;-93
2022/03/15 08:17:03;;;;;;;;;;;12.80;99.90;;;;;;4961633;28;20025;-94
2022/03/15 08:19:29;;;;;;;;;;;12.80;99.90;;;;;;4944905;28;19964;-94
2022/03/15 08:21:55;;;;;;;;;;;12.90;99.90;;;;;;4942215;29;19910;-94
2022/03/15 08:24:22;;;;;;;;;;;13.00;99.90;;;;;;4965963;28;19937;-93
2022/03/15 08:26:47;;;;;;;;;;;13.10;99.90;;;;;;4965359;28;19918;-94
2022/03/15 08:29:13;;;;;;;;;;;13.10;99.90;;;;;;4966135;28;19914;-94
2022/03/15 08:31:39;;;;;;;;;;;13.20;99.90;;;;;;4956365;29;19917;-94
2022/03/15 08:34:06;;;;;;;;;;;13.30;99.90;;;;;;4978419;28;19902;-94
2022/03/15 08:36:31;;;;;;;;;;;13.30;99.90;;;;;;4957347;28;19977;-94
2022/03/15 08:38:57;;;;;;;;;;;13.40;99.90;;;;;;4960962;28;20355;-92
2022/03/15 08:41:23;;;;;;;;;;;13.50;99.90;;;;;;4958575;28;19914;-92
2022/03/15 08:43:48;;;;;;;;;;;13.50;99.90;;;;;;4943224;28;19989;-93
2022/03/15 08:46:14;;;;;;;;;;;13.60;99.90;;;;;;4970916;28;19914;-93
2022/03/15 08:48:40;;;;;;;;;;;13.60;99.90;;;;;;4956125;28;19910;-93
2022/03/15 08:51:05;;;;;;;;;;;13.70;99.90;;;;;;4956981;28;19918;-92
2022/03/15 08:53:34;;;;;;;;;;;13.80;99.90;;;;;;4975804;28;19917;-93
2022/03/15 08:56:00;;;;;;;;;;;13.90;99.90;;;;;;4955274;28;20080;-93
2022/03/15 08:58:25;;;;;;;;;;;13.90;99.90;;;;;;4955772;28;19910;-94
2022/03/15 09:00:52;;;;;;;;;;;14.00;99.90;;;;;;4946083;28;19911;-94
2022/03/15 09:03:17;;;;;;;;;;;14.10;99.90;;;;;;4961241;28;19910;-94
2022/03/15 09:05:43;;;;;;;;;;;14.20;99.90;;;;;;4955564;28;19965;-93
2022/03/15 09:08:09;;;;;;;;;;;14.10;99.90;;;;;;4968622;28;20445;-92
2022/03/15 09:10:34;;;;;;;;;;;14.20;99.90;;;;;;4948364;28;19917;-93
2022/03/15 09:13:00;;;;;;;;;;;14.20;99.90;;;;;;4969599;28;20370;-95
2022/03/15 09:15:26;;;;;;;;;;;14.30;99.90;;;;;;4944322;28;19911;-93
2022/03/15 09:17:52;;;;;;;;;;;14.40;99.90;;;;;;4951683;28;19910;-93
2022/03/15 09:20:18;;;;;;;;;;;14.40;99.90;;;;;;4951465;29;19911;-93
2022/03/15 09:22:46;;;;;;;;;;;14.50;99.90;;;;;;4954319;28;20389;-94
2022/03/15 09:25:11;;;;;;;;;;;14.60;99.90;;;;;;4953845;28;19918;-93
2022/03/15 09:27:37;;;;;;;;;;;14.70;99.90;;;;;;4959220;28;19964;-94
2022/03/15 09:30:04;;;;;;;;;;;14.80;99.90;;;;;;4950553;28;19917;-94
2022/03/15 09:32:30;;;;;;;;;;;14.90;99.90;;;;;;4956499;28;19910;-93
2022/03/15 09:34:57;;;;;;;;;;;15.00;99.90;;;;;;4945714;28;19933;-93
2022/03/15 09:37:23;;;;;;;;;;;15.00;99.90;;;;;;4956500;28;19910;-93
2022/03/15 09:39:50;;;;;;;;;;;15.10;99.90;;;;;;4941987;29;19920;-93
2022/03/15 09:42:18;;;;;;;;;;;15.10;99.90;;;;;;4957355;28;19933;-94
2022/03/15 09:44:43;;;;;;;;;;;15.20;99.90;;;;;;4946279;29;20011;-94
2022/03/15 09:47:10;;;;;;;;;;;15.20;99.90;;;;;;4958636;28;20378;-94
2022/03/15 09:49:36;;;;;;;;;;;15.40;99.90;;;;;;4973853;28;19957;-94
2022/03/15 09:52:04;;;;;;;;;;;15.50;99.90;;;;;;4963866;28;19918;-94
2022/03/15 09:54:29;;;;;;;;;;;15.50;99.90;;;;;;4965601;28;19914;-94
2022/03/15 09:56:59;;;;;;;;;;;15.60;99.90;;;;;;4958942;28;20002;-95
2022/03/15 09:59:26;;;;;;;;;;;15.70;99.90;;;;;;4957748;28;19917;-94
2022/03/15 10:01:53;;;;;;;;;;;15.80;99.90;;;;;;4959890;28;19910;-93
2022/03/15 10:04:20;;;;;;;;;;;15.90;99.90;;;;;;4942733;28;19953;-94
2022/03/15 10:06:46;;;;;;;;;;;15.80;99.90;;;;;;4947213;28;19910;-93
2022/03/15 10:09:13;;;;;;;;;;;15.90;99.90;;;;;;4958590;28;20604;-93
2022/03/15 10:11:38;;;;;;;;;;;15.90;99.90;;;;;;4955430;28;19953;-93
2022/03/15 10:14:04;;;;;;;;;;;16.00;99.90;;;;;;4972636;28;20294;-94
2022/03/15 10:16:32;;;;;;;;;;;16.00;99.90;;;;;;4957200;28;19910;-96
2022/03/15 10:18:58;;;;;;;;;;;16.20;99.90;;;;;;4972053;28;19910;-94
2022/03/15 10:21:27;;;;;;;;;;;16.20;99.90;;;;;;4974820;28;20053;-94
2022/03/15 10:23:58;;;;;;;;;;;16.10;99.90;;;;;;4957376;28;20048;-93
2022/03/15 10:26:24;;;;;;;;;;;16.20;99.90;;;;;;4974723;28;19925;-93
2022/03/15 10:28:53;;;;;;;;;;;16.20;99.90;;;;;;4977790;28;19918;-93
2022/03/15 10:31:22;;;;;;;;;;;16.20;99.90;;;;;;4972359;28;19980;-93
2022/03/15 10:33:49;;;;;;;;;;;16.30;99.90;;;;;;4955987;28;20314;-94
2022/03/15 10:36:19;;;;;;;;;;;16.40;99.90;;;;;;4957502;28;20005;-96
2022/03/15 10:38:49;;;;;;;;;;;16.60;99.90;;;;;;4973407;28;19982;-93
2022/03/15 10:41:15;;;;;;;;;;;16.70;99.90;;;;;;4956865;28;19965;-95
2022/03/15 10:43:41;;;;;;;;;;;16.70;99.90;;;;;;4956255;28;19964;-94
2022/03/15 10:46:09;;;;;;;;;;;16.80;99.90;;;;;;4971909;28;20014;-95
2022/03/15 10:48:37;;;;;;;;;;;16.70;99.90;;;;;;4956554;28;19914;-94
2022/03/15 10:51:07;;;;;;;;;;;16.70;99.90;;;;;;4977371;28;19910;-94
2022/03/15 10:53:37;;;;;;;;;;;16.70;99.90;;;;;;4976719;28;19977;-94
2022/03/15 10:56:12;;;;;;;;;;;16.60;99.90;;;;;;4960120;28;19914;-92
2022/03/15 10:59:04;;;;;;;;;;;16.60;99.90;;;;;;4961895;28;19950;-93
2022/03/15 11:01:35;;;;;;;;;;;16.80;99.90;;;;;;4957756;28;19917;-94
2022/03/15 11:04:08;;;;;;;;;;;16.80;99.90;;;;;;4975585;28;19968;-94
2022/03/15 11:06:41;;;;;;;;;;;16.90;99.90;;;;;;4949862;28;19933;-94
2022/03/15 11:09:19;;;;;;;;;;;16.80;99.90;;;;;;4962158;28;19929;-96
2022/03/15 11:11:46;;;;;;;;;;;16.90;99.90;;;;;;4962615;28;20000;-96
2022/03/15 11:14:13;;;;;;;;;;;17.00;99.90;;;;;;4959852;28;19921;-93
2022/03/15 11:16:41;;;;;;;;;;;17.10;99.90;;;;;;4976706;28;19914;-96
2022/03/15 11:19:06;;;;;;;;;;;16.90;99.90;;;;;;4962614;28;19921;-94
2022/03/15 11:21:33;;;;;;;;;;;16.90;99.90;;;;;;4962519;28;19910;-94
2022/03/15 11:24:00;;;;;;;;;;;17.10;99.90;;;;;;4959883;28;19914;-94
2022/03/15 11:26:29;;;;;;;;;;;17.20;99.90;;;;;;4975550;28;19910;-96
2022/03/15 11:28:55;;;;;;;;;;;17.10;99.90;;;;;;4977858;28;19914;-92
2022/03/15 11:31:23;;;;;;;;;;;17.10;99.90;;;;;;4977794;28;19965;-94
2022/03/15 11:33:51;;;;;;;;;;;17.20;99.90;;;;;;4976403;28;19920;-95
2022/03/15 11:36:18;;;;;;;;;;;17.30;99.90;;;;;;4966512;28;19913;-95
2022/03/15 11:38:44;;;;;;;;;;;17.40;99.90;;;;;;4969852;28;20171;-95
2022/03/15 11:41:10;;;;;;;;;;;17.40;99.90;;;;;;4986404;28;19914;-94
2022/03/15 11:43:50;;;;;;;;;;;17.70;99.90;;;;;;4961323;28;20015;-95
2022/03/15 11:46:22;;;;;;;;;;;17.80;99.90;;;;;;4975657;28;19929;-94
2022/03/15 11:48:59;;;;;;;;;;;17.60;99.90;;;;;;4962836;28;20498;-94
2022/03/15 11:51:31;;;;;;;;;;;17.60;99.90;;;;;;4977146;28;19949;-94
2022/03/15 11:54:12;;;;;;;;;;;17.60;99.90;;;;;;4991544;28;19913;-94
2022/03/15 11:56:58;;;;;;;;;;;17.60;99.90;;;;;;4960379;28;20375;-95
2022/03/15 11:59:24;;;;;;;;;;;17.80;99.90;;;;;;4960213;28;19933;-94
2022/03/15 12:01:51;;;;;;;;;;;17.80;99.90;;;;;;4974903;28;20470;-94
2022/03/15 12:04:21;;;;;;;;;;;17.80;99.90;;;;;;4975272;28;19953;-94
2022/03/15 12:06:59;;;;;;;;;;;18.00;99.90;;;;;;4977594;28;20378;-94
2022/03/15 12:09:34;;;;;;;;;;;18.00;99.90;;;;;;4960534;28;19957;-94
2022/03/15 12:12:09;;;;;;;;;;;18.10;99.90;;;;;;4943618;28;20065;-94
2022/03/15 12:14:58;;;;;;;;;;;18.20;99.90;;;;;;4962143;28;19918;-95
2022/03/15 12:17:42;;;;;;;;;;;18.30;99.90;;;;;;4970350;28;19945;-94
2022/03/15 12:20:13;;;;;;;;;;;18.50;99.90;;;;;;4959050;28;19914;-94
2022/03/15 12:22:40;;;;;;;;;;;18.60;99.90;;;;;;4974582;28;20310;-94
2022/03/15 12:25:05;;;;;;;;;;;18.50;99.90;;;;;;4975975;28;19922;-94
2022/03/15 12:27:38;;;;;;;;;;;18.40;99.90;;;;;;4961257;28;19910;-96
2022/03/15 12:30:08;;;;;;;;;;;18.40;99.90;;;;;;4974321;28;19914;-94
2022/03/15 12:32:36;;;;;;;;;;;18.50;99.90;;;;;;4976265;28;19910;-95
2022/03/15 12:35:08;;;;;;;;;;;18.50;99.90;;;;;;4960108;28;19902;-94
2022/03/15 12:37:37;;;;;;;;;;;18.40;99.90;;;;;;4974436;28;19914;-95
2022/03/15 12:40:10;;;;;;;;;;;18.20;99.90;;;;;;4957637;28;20529;-94
2022/03/15 12:42:53;;;;;;;;;;;18.40;99.90;;;;;;4973441;28;19989;-95
2022/03/15 12:45:24;;;;;;;;;;;18.60;99.90;;;;;;4958108;28;20405;-95
2022/03/15 12:47:51;;;;;;;;;;;18.70;99.90;;;;;;4958137;28;19910;-94
2022/03/15 12:53:55;;;;;;;;;;;19.00;99.90;;;;;;4962333;28;20364;-95
2022/03/15 12:59:55;;;;;;;;;;;19.00;99.90;;;;;;4975879;28;19910;-95
2022/03/15 13:02:57;;;;;;;;;;;19.20;99.90;;;;;;4953101;28;19910;-95
2022/03/15 13:12:43;;;;;;;;;;;19.40;99.90;;;;;;4904584;28;19910;-95
2022/03/15 13:15:31;;;;;;;;;;;19.60;99.90;;;;;;4927415;28;20034;-95
2022/03/15 13:21:39;;;;;;;;;;;;;;;;;;;;;
2022/03/15 13:24:22;;;;;;;;;;;;;;;;;;;;;
2022/03/15 13:30:19;;;;;;;;;;;;;;;;;;;;;
2022/03/15 13:33:19;;;;;;;;;;;19.30;99.90;;;;;;4973976;28;19910;-95
2022/03/15 13:36:21;;;;;;;;;;;;;;;;;;;;;
2022/03/15 13:42:10;;;;;;;;;;;;;;;;;;;;;
2022/03/15 13:51:57;;;;;;;;;;;;;;;;;;;;;
2022/03/15 18:24:21;;;;;;;;;;;;;;;;;;;;;
2022/03/15 18:27:20;;;;;;;;;;;16.30;99.90;;;;;;4822447;29;19927;-95
2022/03/15 18:29:45;;;;;;;;;;;16.30;99.90;;;;;;4830023;29;19932;-95
2022/03/15 18:32:12;;;;;;;;;;;16.20;99.90;;;;;;4860210;29;19912;-91
2022/03/15 18:34:37;;;;;;;;;;;16.20;99.90;;;;;;4923565;28;19910;-93
2022/03/15 18:37:03;;;;;;;;;;;16.20;99.90;;;;;;4963168;28;20288;-93
2022/03/15 18:39:30;;;;;;;;;;;16.10;99.90;;;;;;4955348;28;19906;-93
2022/03/15 18:42:01;;;;;;;;;;;16.00;99.90;;;;;;4953205;28;19917;-88
2022/03/15 18:44:29;;;;;;;;;;;16.00;99.90;;;;;;4964734;28;20014;-87
2022/03/15 18:46:55;;;;;;;;;;;15.90;99.90;;;;;;4947039;28;19915;-87
2022/03/15 18:49:21;;;;;;;;;;;15.90;99.90;;;;;;4963214;28;19907;-87
2022/03/15 18:51:47;;;;;;;;;;;15.90;99.90;;;;;;4944979;28;20270;-87
2022/03/15 18:54:13;;;;;;;;;;;15.90;99.90;;;;;;4952471;28;19957;-87
2022/03/15 18:56:39;;;;;;;;;;;15.80;99.90;;;;;;4952182;28;19950;-87
2022/03/15 18:59:04;;;;;;;;;;;15.80;99.90;;;;;;4952074;28;19953;-87
2022/03/15 19:01:32;;;;;;;;;;;15.70;99.90;;;;;;4957170;28;20035;-87
2022/03/15 19:04:02;;;;;;;;;;;15.70;99.90;;;;;;4953657;28;20422;-85
2022/03/15 19:06:27;;;;;;;;;;;15.70;99.90;;;;;;4952091;28;19936;-86
2022/03/15 19:08:53;;;;;;;;;;;15.70;99.90;;;;;;4947711;28;19929;-87
2022/03/15 19:11:20;;;;;;;;;;;15.70;99.90;;;;;;4936038;29;20402;-86
2022/03/15 19:13:47;;;;;;;;;;;15.70;99.90;;;;;;4938713;29;20283;-87
2022/03/15 19:16:14;;;;;;;;;;;15.60;99.90;;;;;;4937339;29;19911;-87
2022/03/15 19:18:41;;;;;;;;;;;15.60;99.90;;;;;;4937808;29;20383;-86
2022/03/15 19:21:06;;;;;;;;;;;15.60;99.90;;;;;;4953913;29;19950;-87
2022/03/15 19:23:33;;;;;;;;;;;15.60;99.90;;;;;;4955750;29;19911;-87
2022/03/15 19:25:58;;;;;;;;;;;15.50;99.90;;;;;;4954647;29;19926;-86
2022/03/15 19:28:24;;;;;;;;;;;15.50;99.90;;;;;;4954590;29;19911;-86
2022/03/15 19:30:50;;;;;;;;;;;15.50;99.90;;;;;;4954368;29;19910;-86
2022/03/15 19:33:16;;;;;;;;;;;15.50;99.90;;;;;;4955029;29;20015;-85
2022/03/15 19:35:44;;;;;;;;;;;15.40;99.90;;;;;;4957832;29;19913;-85
2022/03/15 19:38:10;;;;;;;;;;;15.40;99.90;;;;;;4954554;29;19911;-85
2022/03/15 19:40:36;;;;;;;;;;;15.40;99.90;;;;;;4953392;29;19974;-86
2022/03/15 19:43:04;;;;;;;;;;;15.30;99.90;;;;;;4953665;29;19969;-85
2022/03/15 19:45:35;;;;;;;;;;;15.30;99.90;;;;;;4953883;29;19919;-86
2022/03/15 19:48:02;;;;;;;;;;;15.30;99.90;;;;;;4954407;29;19941;-86